Latest Weather Observations for Gove Airport

IDD60801

Issued at 10:01 am CST Tuesday 23 May 2017 (issued every 30 minutes, with the page automatically refreshed every 10 minutes)

About weather observations | Map of weather stations | Latest weather observations for NT | Other Formats
Station Details ID: 014508 Name: GOVE AIRPORT Lat: -12.27 Lon: 136.82 Height: 51.6 m
Data from the previous 72 hours. | See also: Recent months at Gove Airport
Date/Time
CST
Temp
°C
App
Temp
°C
Dew
Point
°C
Rel
Hum
%
Delta-T
°C
Wind Press
QNH
hPa
Press
MSL
hPa
Rain since
9am
mm
Dir  Spd
km/h
Gust
km/h
Spd
kts
Gust
kts
23/09:30am 29.3 30.2 22.7 67 4.5 ESE 22 33 12 18 1014.3 1014.0 0.0
23/09:00am 28.7 29.7 22.8 70 4.0 SE 22 33 12 18 1014.3 1014.0 1.6
23/08:30am 28.2 30.3 23.1 74 3.5 SE 17 26 9 14 1014.0 1013.7 1.6
23/08:00am 27.1 29.6 23.1 79 2.7 SE 15 20 8 11 1013.7 1013.4 1.6
23/07:30am 25.9 28.6 22.8 83 2.1 SE 13 17 7 9 1013.1 1012.8 1.6
23/07:00am 25.5 28.0 22.5 83 2.0 SE 13 17 7 9 1012.7 1012.4 1.6
23/06:30am 25.3 27.8 22.5 84 1.9 SE 13 17 7 9 1012.4 1012.1 1.6
23/06:00am 25.3 28.0 22.8 86 1.7 SE 13 19 7 10 1012.1 1011.8 1.6
23/05:30am 25.1 27.8 22.9 87 1.5 SSE 13 15 7 8 1011.9 1011.6 1.6
23/05:00am 25.1 28.2 22.9 87 1.5 SSE 11 15 6 8 1011.7 1011.4 1.6
23/04:30am 25.1 27.8 22.9 87 1.5 SSE 13 17 7 9 1011.5 1011.2 1.6
23/04:00am 25.3 28.0 22.8 86 1.7 SSE 13 19 7 10 1011.6 1011.3 1.6
23/03:30am 25.3 28.0 22.8 86 1.7 SSE 13 19 7 10 1011.6 1011.3 1.6
23/03:00am 25.4 28.0 22.7 85 1.8 SSE 13 22 7 12 1011.7 1011.4 1.6
23/02:30am 25.4 27.7 22.7 85 1.8 SE 15 20 8 11 1011.9 1011.6 1.6
23/01:30am 25.2 27.8 22.7 86 1.7 SSE 13 20 7 11 1012.5 1012.2 1.6
23/01:00am 25.2 27.9 22.8 86 1.6 SSE 13 19 7 10 1012.7 1012.4 1.6
23/12:30am 24.9 28.0 22.8 88 1.4 SSE 11 15 6 8 1013.1 1012.8 1.6
23/12:00am 25.0 28.1 22.9 88 1.4 SSE 11 13 6 7 1013.2 1012.9 1.6
 
Date/Time
CST
Temp
°C
App
Temp
°C
Dew
Point
°C
Rel
Hum
%
Delta-T
°C
Wind Press
QNH
hPa
Press
MSL
hPa
Rain since
9am
mm
Dir  Spd
km/h
Gust
km/h
Spd
kts
Gust
kts
22/11:30pm 24.9 28.1 23.0 89 1.3 SSE 11 15 6 8 1013.3 1013.0 1.6
22/11:00pm 24.9 28.1 23.1 90 1.2 SSE 11 13 6 7 1013.5 1013.2 1.6
22/10:30pm 24.7 28.4 23.2 91 1.0 SSE 9 13 5 7 1013.6 1013.3 1.6
22/10:00pm 24.7 28.5 23.4 92 0.9 SSE 9 11 5 6 1013.6 1013.3 1.6
22/09:30pm 24.6 28.8 23.4 93 0.8 SSE 7 9 4 5 1013.6 1013.3 1.6
22/09:00pm 24.9 28.7 23.4 91 1.0 SSE 9 11 5 6 1013.5 1013.2 1.6
22/08:30pm 24.9 28.7 23.4 91 1.0 SSE 9 11 5 6 1013.1 1012.8 1.6
22/08:00pm 25.0 29.2 23.4 91 1.1 S 7 9 4 5 1012.7 1012.4 1.6
22/07:30pm 25.4 29.2 23.5 89 1.3 SSE 9 11 5 6 1012.3 1012.0 1.6
22/07:00pm 25.8 29.6 23.5 87 1.6 SSE 9 13 5 7 1012.0 1011.7 1.6
22/06:30pm 26.3 29.3 23.4 84 2.0 SSE 13 17 7 9 1011.8 1011.5 1.6
22/06:00pm 26.8 29.9 23.6 82 2.2 SE 13 17 7 9 1011.7 1011.4 1.6
22/05:30pm 27.7 29.4 23.0 75 3.2 SE 19 26 10 14 1011.5 1011.2 1.6
22/05:00pm 28.3 29.1 22.4 70 4.0 SE 22 30 12 16 1011.2 1010.9 1.6
22/04:30pm 29.1 30.7 23.3 71 4.0 ESE 20 26 11 14 1011.0 1010.7 1.6
22/04:00pm 29.4 30.0 22.8 67 4.5 ESE 24 33 13 18 1010.8 1010.5 1.6
22/03:30pm 29.7 30.7 22.8 66 4.7 SE 22 30 12 16 1010.9 1010.6 1.6
22/03:00pm 29.5 30.7 23.9 72 3.9 SE 24 32 13 17 1011.0 1010.7 1.6
22/02:30pm 29.5 30.8 24.0 72 3.8 SE 24 32 13 17 1011.1 1010.8 1.6
22/02:00pm 29.4 31.0 23.8 72 3.9 SE 22 37 12 20 1011.4 1011.1 1.6
22/01:30pm 29.1 29.2 23.3 71 4.0 SE 28 39 15 21 1011.8 1011.5 1.6
22/01:00pm 28.9 29.1 23.5 72 3.7 SE 28 35 15 19 1012.1 1011.8 1.6
22/12:30pm 27.9 30.3 25.2 85 1.9 SE 22 28 12 15 1012.5 1012.2 1.6
22/12:16pm 28.6 30.5 24.4 78 2.9 ESE 22 28 12 15 1012.7 1012.4 1.2
22/12:00pm 27.4 29.4 25.1 87 1.6 ESE 24 32 13 17 1012.9 1012.6 1.2
22/11:49am 27.3 30.7 25.3 89 1.4 SE 17 28 9 15 1013.1 1012.8 1.2
22/11:30am 27.4 30.2 25.0 87 1.7 SSE 19 28 10 15 1013.2 1012.9 1.0
22/11:05am 27.7 30.0 24.5 83 2.2 SE 20 26 11 14 1013.3 1013.0 1.0
22/11:00am 27.6 30.1 24.4 83 2.2 ESE 19 24 10 13 1013.4 1013.1 1.0
22/10:43am 27.0 29.3 25.0 89 1.4 ESE 22 32 12 17 1013.5 1013.2 1.0
22/10:30am 28.5 29.4 23.9 76 3.2 ESE 26 33 14 18 1013.5 1013.2 0.0
22/10:00am 28.5 29.7 23.9 76 3.2 SE 24 32 13 17 1013.4 1013.1 0.0
22/09:30am 28.5 30.5 24.0 76 3.1 SE 20 28 11 15 1013.4 1013.1 0.0
22/09:00am 28.0 29.6 23.8 78 2.9 SE 22 28 12 15 1013.4 1013.1 0.2
22/08:30am 27.6 28.8 23.8 80 2.6 SE 24 32 13 17 1013.1 1012.8 0.2
22/08:00am 27.2 30.3 24.2 84 2.1 SE 15 19 8 10 1012.9 1012.6 0.2
22/07:30am 26.4 30.2 24.1 87 1.6 SE 11 15 6 8 1012.7 1012.4 0.2
22/07:00am 25.5 29.2 23.9 91 1.1 SE 11 13 6 7 1012.4 1012.1 0.2
22/06:30am 25.4 28.9 23.6 90 1.2 SE 11 17 6 9 1012.2 1011.9 0.2
22/06:00am 25.6 28.4 23.7 89 1.3 SE 15 17 8 9 1011.9 1011.6 0.2
22/05:30am 25.6 28.8 23.7 89 1.3 SE 13 19 7 10 1011.7 1011.4 0.2
22/05:00am 25.2 28.7 23.6 91 1.1 SE 11 15 6 8 1011.5 1011.2 0.2
22/04:30am 25.0 28.4 23.4 91 1.1 SE 11 15 6 8 1011.2 1010.9 0.2
22/04:00am 25.1 28.4 23.2 89 1.3 SE 11 13 6 7 1011.1 1010.8 0.2
22/03:30am 25.3 28.2 23.2 88 1.4 SSE 13 17 7 9 1010.8 1010.5 0.2
22/03:00am 25.4 28.8 23.3 88 1.4 SSE 11 15 6 8 1011.0 1010.7 0.2
22/02:30am 25.4 28.9 23.6 90 1.2 SE 11 15 6 8 1011.1 1010.8 0.2
22/02:01am 25.4 29.1 23.9 91 1.0 SE 11 13 6 7 1011.1 1010.8 0.2
22/02:00am 25.3 29.1 24.0 92 0.9 SE 11 13 6 7 1011.1 1010.8 0.2
22/01:44am 25.7 29.0 23.8 89 1.3 SE 13 20 7 11 1011.1 1010.8 0.2
22/01:30am 25.7 28.9 23.7 89 1.4 SE 13 17 7 9 1011.2 1010.9 0.2
22/01:00am 25.3 29.9 24.1 93 0.8 SE 7 9 4 5 1011.4 1011.1 0.2
22/12:30am 25.0 29.4 23.8 93 0.8 SE 7 9 4 5 1011.6 1011.3 0.2
22/12:00am 25.0 29.6 24.1 95 0.6 SSE 7 7 4 4 1011.8 1011.5 0.2
 
Date/Time
CST
Temp
°C
App
Temp
°C
Dew
Point
°C
Rel
Hum
%
Delta-T
°C
Wind Press
QNH
hPa
Press
MSL
hPa
Rain since
9am
mm
Dir  Spd
km/h
Gust
km/h
Spd
kts
Gust
kts
21/11:30pm 24.9 28.9 23.7 93 0.8 SE 9 11 5 6 1011.8 1011.5 0.2
21/11:00pm 25.0 29.0 23.7 92 0.9 SE 9 11 5 6 1011.9 1011.6 0.2
21/10:30pm 25.0 29.0 23.7 92 0.9 SSE 9 11 5 6 1011.9 1011.6 0.2
21/10:00pm 25.0 29.7 24.0 94 0.7 SE 6 7 3 4 1011.8 1011.5 0.2
21/09:30pm 25.1 29.7 24.1 94 0.7 SSE 7 9 4 5 1011.7 1011.4 0.2
21/09:00pm 25.1 29.4 24.2 95 0.6 SE 9 9 5 5 1011.4 1011.1 0.2
21/08:30pm 25.3 29.5 24.1 93 0.8 SE 9 9 5 5 1011.2 1010.9 0.2
21/08:00pm 25.4 29.5 23.9 91 1.0 SE 9 11 5 6 1010.7 1010.4 0.2
21/07:30pm 25.6 29.9 24.2 92 1.0 SE 9 9 5 5 1010.3 1009.9 0.2
21/07:00pm 26.2 30.0 24.0 88 1.5 SE 11 15 6 8 1009.9 1009.5 0.2
21/06:30pm 26.7 30.1 24.1 86 1.8 SE 13 17 7 9 1009.8 1009.4 0.2
21/06:00pm 27.1 30.2 24.2 84 2.0 ESE 15 19 8 10 1009.6 1009.2 0.2
21/05:30pm 27.6 29.7 23.8 80 2.6 SE 19 24 10 13 1009.4 1009.0 0.2
21/05:00pm 28.2 29.9 24.0 78 2.9 ESE 22 28 12 15 1009.2 1008.8 0.2
21/04:30pm 28.6 30.5 23.8 75 3.3 ESE 20 28 11 15 1009.1 1008.7 0.2
21/04:00pm 28.6 30.3 24.0 76 3.2 ESE 22 28 12 15 1008.9 1008.5 0.2
21/03:30pm 29.0 30.7 24.1 75 3.4 E 22 32 12 17 1009.0 1008.6 0.2
21/03:00pm 28.9 30.0 23.7 73 3.6 ESE 24 30 13 16 1009.1 1008.7 0.2
21/02:30pm 29.1 31.0 24.4 76 3.3 E 22 30 12 16 1009.3 1008.9 0.2
21/02:00pm 29.6 30.6 23.5 69 4.2 E 24 33 13 18 1009.5 1009.1 0.2
21/01:30pm 30.1 30.6 23.3 67 4.7 E 26 35 14 19 1009.8 1009.4 0.2
21/01:00pm 29.6 32.2 24.9 76 3.3 E 20 32 11 17 1010.2 1009.8 0.2
21/12:30pm 28.5 31.1 24.9 81 2.5 E 20 28 11 15 1010.6 1010.3 0.2
21/12:00pm 28.8 30.1 24.7 78 2.9 E 26 37 14 20 1011.1 1010.8 0.2
21/11:30am 28.8 29.6 24.5 77 3.0 E 28 37 15 20 1011.3 1011.0 0.2
21/11:00am 29.2 30.2 24.2 74 3.5 E 26 37 14 20 1011.4 1011.1 0.2
21/10:30am 28.4 29.9 24.4 79 2.8 E 24 35 13 19 1011.6 1011.3 0.2
21/10:00am 28.9 31.4 25.4 81 2.5 E 22 35 12 19 1011.6 1011.3 0.2
21/09:49am 28.1 30.6 25.3 85 2.0 E 22 32 12 17 1011.6 1011.3 0.2
21/09:30am 26.9 29.3 25.2 90 1.2 ESE 22 32 12 17 1011.5 1011.2 0.0
21/09:29am 27.0 29.3 25.1 89 1.3 ESE 22 32 12 17 1011.5 1011.2 0.0
21/09:11am 27.4 29.7 25.1 87 1.6 ESE 22 30 12 16 1011.3 1011.0 0.0
21/09:01am 27.1 29.4 25.1 89 1.4 ESE 22 30 12 16 1011.3 1011.0 0.0
21/09:00am 27.1 29.8 25.1 89 1.4 ESE 20 30 11 16 1011.3 1011.0 10.0
21/08:56am 27.0 29.9 25.4 91 1.1 ESE 20 28 11 15 1011.3 1011.0 10.0
21/08:55am 26.9 29.7 25.3 91 1.1 ESE 20 28 11 15 1011.3 1011.0 10.0
21/08:32am 26.7 30.2 25.4 93 0.9 SE 17 35 9 19 1011.0 1010.7 8.0
21/08:30am 26.9 31.3 25.6 93 0.9 SE 13 28 7 15 1010.9 1010.6 7.8
21/08:29am 27.0 31.4 25.7 93 0.9 SE 13 17 7 9 1010.9 1010.6 7.8
21/08:26am 27.0 31.4 25.7 93 0.9 SE 13 17 7 9 1010.8 1010.5 7.8
21/08:15am 26.7 31.8 25.6 94 0.8 SE 9 17 5 9 1010.8 1010.5 7.8
21/08:08am 25.9 31.3 25.2 96 0.5 S 6 11 3 6 1010.7 1010.4 7.8
21/08:00am 25.7 31.4 25.0 96 0.5 S 4 9 2 5 1010.6 1010.3 7.8
21/07:58am 25.7 31.4 25.0 96 0.5 SSW 4 7 2 4 1010.5 1010.1 7.8
21/07:45am 25.4 30.5 24.7 96 0.5 S 6 7 3 4 1010.4 1010.0 7.8
21/07:32am 25.2 30.8 24.8 98 0.3 SE 4 7 2 4 1010.2 1009.8 7.8
21/07:30am 25.2 30.7 24.6 96 0.4 SSE 4 7 2 4 1010.2 1009.8 7.8
21/07:24am 25.0 31.2 24.6 98 0.3 CALM 0 6 0 3 1010.1 1009.7 7.8
21/07:09am 25.0 30.8 24.6 98 0.3 SSW 2 6 1 3 1010.0 1009.6 7.8
21/07:00am 24.9 29.6 24.3 96 0.4 SW 7 11 4 6 1010.0 1009.6 7.8
21/06:49am 24.6 29.3 24.3 98 0.2 NNW 7 11 4 6 1009.9 1009.5 7.8
21/06:30am 24.5 28.7 24.1 98 0.3 NNE 9 15 5 8 1009.8 1009.4 6.8
21/06:00am 24.5 27.9 24.1 98 0.3 ENE 13 17 7 9 1009.5 1009.1 3.6
21/05:32am 24.5 28.6 23.9 96 0.4 ESE 9 19 5 10 1009.3 1008.9 1.4
21/05:30am 24.5 29.0 23.9 96 0.4 ESE 7 11 4 6 1009.3 1008.9 1.2
21/05:00am 24.6 27.8 23.7 95 0.6 ESE 13 17 7 9 1009.0 1008.6 1.0
21/04:48am 24.5 27.4 23.8 96 0.5 E 15 19 8 10 1009.0 1008.6 1.0
21/04:30am 24.5 27.8 23.8 96 0.5 E 13 20 7 11 1008.9 1008.5 1.0
21/04:28am 24.5 27.6 23.6 95 0.6 E 13 20 7 11 1008.9 1008.5 1.0
21/04:00am 24.5 29.1 23.8 96 0.5 ESE 6 9 3 5 1008.8 1008.4 1.0
21/03:43am 24.6 28.1 23.6 94 0.7 SE 11 15 6 8 1008.7 1008.3 1.0
21/03:36am 24.8 27.5 23.5 92 0.9 ESE 15 20 8 11 1008.9 1008.5 1.0
21/03:30am 24.9 27.5 23.3 91 1.1 ESE 15 20 8 11 1008.9 1008.5 1.0
21/03:08am 25.9 31.2 24.9 94 0.7 E 6 9 3 5 1008.9 1008.5 0.8
21/03:00am 25.8 31.0 24.8 94 0.7 ESE 6 9 3 5 1008.9 1008.5 0.6
21/02:49am 25.6 30.5 24.7 95 0.6 SE 7 9 4 5 1009.0 1008.6 0.6
21/02:30am 25.7 29.9 24.7 94 0.7 SE 11 13 6 7 1009.2 1008.8 0.6
21/02:00am 25.6 29.7 24.6 94 0.7 SE 11 15 6 8 1009.4 1009.0 0.6
21/01:30am 25.9 29.3 24.6 92 0.9 ESE 15 20 8 11 1009.7 1009.3 0.6
21/01:09am 26.0 29.4 24.7 92 0.9 ESE 15 20 8 11 1009.8 1009.4 0.6
21/01:00am 25.8 29.7 24.9 95 0.6 ESE 13 17 7 9 1009.8 1009.4 0.6
21/12:53am 25.7 30.4 25.0 96 0.5 SE 9 17 5 9 1009.9 1009.5 0.6
21/12:30am 25.5 29.9 24.5 94 0.7 SSE 9 13 5 7 1010.0 1009.6 0.6
21/12:00am 25.4 29.3 24.2 93 0.8 SSE 11 15 6 8 1010.1 1009.7 0.6
 
Date/Time
CST
Temp
°C
App
Temp
°C
Dew
Point
°C
Rel
Hum
%
Delta-T
°C
Wind Press
QNH
hPa
Press
MSL
hPa
Rain since
9am
mm
Dir  Spd
km/h
Gust
km/h
Spd
kts
Gust
kts
20/11:30pm 25.5 29.4 24.2 92 0.9 SSE 11 15 6 8 1010.1 1009.7 0.6
20/11:00pm 25.5 29.9 24.5 94 0.7 SSE 9 13 5 7 1010.4 1010.0 0.6
20/10:30pm 25.6 30.1 24.6 94 0.7 SE 9 11 5 6 1010.6 1010.3 0.6
20/10:00pm 25.3 29.8 24.6 96 0.5 SE 9 11 5 6 1010.5 1010.1 0.6
20/09:30pm 25.2 29.6 24.5 96 0.5 SSE 9 13 5 7 1010.4 1010.0 0.6
20/09:00pm 24.9 29.2 24.3 96 0.4 SSE 9 11 5 6 1010.5 1010.1 0.6
20/08:30pm 25.0 29.4 24.4 96 0.4 SE 9 13 5 7 1010.4 1010.0 0.6
20/08:00pm 25.0 29.4 24.4 96 0.4 SE 9 13 5 7 1010.2 1009.8 0.6
20/07:30pm 25.1 29.4 24.2 95 0.6 ESE 9 11 5 6 1009.9 1009.5 0.6
20/07:05pm 25.2 29.6 24.5 96 0.5 ESE 9 13 5 7 1009.6 1009.2 0.6
20/07:00pm 25.2 29.1 24.3 95 0.6 ESE 11 15 6 8 1009.6 1009.2 0.6
20/06:30pm 25.2 28.5 24.5 96 0.5 ESE 15 19 8 10 1009.2 1008.8 0.6
20/06:15pm 25.4 29.2 24.7 96 0.5 ESE 13 17 7 9 1009.0 1008.6 0.6
20/06:00pm 25.6 29.4 24.7 95 0.6 ESE 13 17 7 9 1009.0 1008.6 0.6
20/05:30pm 25.7 29.9 24.7 94 0.7 SE 11 15 6 8 1008.9 1008.5 0.6
20/05:27pm 25.7 29.9 24.8 95 0.6 SE 11 17 6 9 1008.9 1008.5 0.6
20/05:17pm 25.7 29.9 24.8 95 0.6 SE 11 15 6 8 1008.8 1008.4 0.6
20/05:01pm 25.6 28.6 24.6 94 0.7 SE 17 20 9 11 1008.7 1008.3 0.4
20/05:00pm 25.6 28.6 24.7 95 0.6 SE 17 22 9 12 1008.7 1008.3 0.2
20/04:45pm 26.0 29.2 25.0 94 0.7 SE 17 26 9 14 1008.6 1008.2 0.0
20/04:35pm 26.2 28.9 24.8 92 1.0 SSE 19 24 10 13 1008.5 1008.1 0.0
20/04:30pm 26.2 28.9 25.1 94 0.8 SSE 20 26 11 14 1008.4 1008.0 0.0
20/04:29pm 26.3 29.0 25.0 92 0.9 SSE 20 26 11 14 1008.4 1008.0 0.0
20/04:00pm 27.6 30.8 24.9 85 1.9 SSE 17 22 9 12 1008.2 1007.8 0.0
20/03:30pm 30.0 33.5 23.6 68 4.4 ENE 11 17 6 9 1008.0 1007.6 0.0
20/03:00pm 28.8 31.6 23.7 74 3.5 ENE 15 19 8 10 1007.9 1007.5 0.0
20/02:30pm 29.3 33.3 25.0 77 3.0 NE 13 19 7 10 1008.2 1007.8 0.0
20/02:00pm 29.6 33.2 24.3 73 3.7 ENE 13 19 7 10 1008.5 1008.1 0.0
20/01:30pm 29.7 33.3 24.3 73 3.8 ENE 13 15 7 8 1008.8 1008.4 0.0
20/01:00pm 30.8 33.7 24.4 68 4.5 ENE 17 26 9 14 1009.2 1008.8 0.0
20/12:30pm 31.3 34.6 24.5 67 4.8 NE 15 20 8 11 1009.5 1009.1 0.0
20/12:00pm 30.7 34.1 24.1 68 4.6 NE 13 19 7 10 1010.0 1009.6 0.0
20/11:30am 30.3 33.5 24.3 70 4.2 ENE 15 24 8 13 1010.3 1009.9 0.0
20/11:00am 29.0 33.2 24.1 75 3.4 NNE 9 11 5 6 1010.6 1010.3 0.0
20/10:30am 29.2 33.3 24.0 73 3.6 NNE 9 13 5 7 1010.8 1010.5 0.0

Other Formats:

Comma delimited format used in spreadsheet applications
http://www.bom.gov.au/fwo/IDD60801/IDD60801.94150.axf

JavaScript Object Notation format (JSON) in row-major order
http://www.bom.gov.au/fwo/IDD60801/IDD60801.94150.json